sensor_id;sensor_type;location;lat;lon;timestamp;P1;durP1;ratioP1;P2;durP2;ratioP2
54197;SDS011;40105;52.366;17.000;2023-03-13T00:01:28;33.25;;;17.77;;
54197;SDS011;40105;52.366;17.000;2023-03-13T00:03:54;40.85;;;20.05;;
54197;SDS011;40105;52.366;17.000;2023-03-13T00:06:20;31.10;;;14.07;;
54197;SDS011;40105;52.366;17.000;2023-03-13T00:08:45;43.83;;;19.08;;
54197;SDS011;40105;52.366;17.000;2023-03-13T00:11:11;24.93;;;14.07;;
54197;SDS011;40105;52.366;17.000;2023-03-13T00:13:36;123.75;;;30.65;;
54197;SDS011;40105;52.366;17.000;2023-03-13T00:16:05;36.33;;;15.67;;
54197;SDS011;40105;52.366;17.000;2023-03-13T00:18:31;33.47;;;18.75;;
54197;SDS011;40105;52.366;17.000;2023-03-13T00:20:57;36.08;;;13.70;;
54197;SDS011;40105;52.366;17.000;2023-03-13T00:23:22;36.15;;;15.13;;
54197;SDS011;40105;52.366;17.000;2023-03-13T00:25:48;37.80;;;18.03;;
54197;SDS011;40105;52.366;17.000;2023-03-13T00:28:19;35.90;;;18.27;;
54197;SDS011;40105;52.366;17.000;2023-03-13T00:30:44;35.40;;;17.37;;
54197;SDS011;40105;52.366;17.000;2023-03-13T00:33:09;46.43;;;20.47;;
54197;SDS011;40105;52.366;17.000;2023-03-13T00:35:34;35.23;;;18.27;;
54197;SDS011;40105;52.366;17.000;2023-03-13T00:38:00;43.03;;;23.50;;
54197;SDS011;40105;52.366;17.000;2023-03-13T00:40:25;41.80;;;18.00;;
54197;SDS011;40105;52.366;17.000;2023-03-13T00:42:50;50.23;;;24.57;;
54197;SDS011;40105;52.366;17.000;2023-03-13T00:45:15;38.93;;;17.27;;
54197;SDS011;40105;52.366;17.000;2023-03-13T00:47:40;51.13;;;20.67;;
54197;SDS011;40105;52.366;17.000;2023-03-13T00:50:06;40.10;;;19.90;;
54197;SDS011;40105;52.366;17.000;2023-03-13T00:52:31;36.05;;;17.33;;
54197;SDS011;40105;52.366;17.000;2023-03-13T00:54:56;53.40;;;28.20;;
54197;SDS011;40105;52.366;17.000;2023-03-13T00:57:21;52.73;;;21.80;;
54197;SDS011;40105;52.366;17.000;2023-03-13T00:59:46;60.13;;;24.87;;
54197;SDS011;40105;52.366;17.000;2023-03-13T01:02:11;40.27;;;18.83;;
54197;SDS011;40105;52.366;17.000;2023-03-13T01:04:37;39.53;;;17.40;;
54197;SDS011;40105;52.366;17.000;2023-03-13T01:07:02;43.23;;;21.83;;
54197;SDS011;40105;52.366;17.000;2023-03-13T01:09:27;41.30;;;19.60;;
54197;SDS011;40105;52.366;17.000;2023-03-13T01:11:52;46.63;;;24.00;;
54197;SDS011;40105;52.366;17.000;2023-03-13T01:14:18;49.40;;;22.13;;
54197;SDS011;40105;52.366;17.000;2023-03-13T01:16:43;47.88;;;24.85;;
54197;SDS011;40105;52.366;17.000;2023-03-13T01:19:10;39.37;;;18.47;;
54197;SDS011;40105;52.366;17.000;2023-03-13T01:21:35;58.63;;;23.63;;
54197;SDS011;40105;52.366;17.000;2023-03-13T01:24:01;61.63;;;28.20;;
54197;SDS011;40105;52.366;17.000;2023-03-13T01:26:26;48.22;;;23.70;;
54197;SDS011;40105;52.366;17.000;2023-03-13T01:28:51;46.58;;;19.88;;
54197;SDS011;40105;52.366;17.000;2023-03-13T01:31:30;52.38;;;23.92;;
54197;SDS011;40105;52.366;17.000;2023-03-13T01:33:56;71.68;;;38.53;;
54197;SDS011;40105;52.366;17.000;2023-03-13T01:36:21;48.13;;;20.65;;
54197;SDS011;40105;52.366;17.000;2023-03-13T01:38:47;48.22;;;22.77;;
54197;SDS011;40105;52.366;17.000;2023-03-13T01:41:13;65.47;;;24.02;;
54197;SDS011;40105;52.366;17.000;2023-03-13T01:43:38;47.55;;;22.38;;
54197;SDS011;40105;52.366;17.000;2023-03-13T01:46:08;47.75;;;21.30;;
54197;SDS011;40105;52.366;17.000;2023-03-13T01:48:48;53.97;;;23.20;;
54197;SDS011;40105;52.366;17.000;2023-03-13T01:53:40;50.70;;;25.90;;
54197;SDS011;40105;52.366;17.000;2023-03-13T01:56:07;49.20;;;21.73;;
54197;SDS011;40105;52.366;17.000;2023-03-13T01:58:33;48.05;;;19.90;;
54197;SDS011;40105;52.366;17.000;2023-03-13T02:00:59;42.35;;;21.60;;
54197;SDS011;40105;52.366;17.000;2023-03-13T02:03:25;62.60;;;24.50;;
54197;SDS011;40105;52.366;17.000;2023-03-13T02:05:51;60.15;;;24.58;;
54197;SDS011;40105;52.366;17.000;2023-03-13T02:08:18;46.05;;;21.23;;
54197;SDS011;40105;52.366;17.000;2023-03-13T02:10:48;68.70;;;26.70;;
54197;SDS011;40105;52.366;17.000;2023-03-13T02:13:14;54.25;;;21.60;;
54197;SDS011;40105;52.366;17.000;2023-03-13T02:15:41;52.72;;;24.90;;
54197;SDS011;40105;52.366;17.000;2023-03-13T02:18:06;48.65;;;23.17;;
54197;SDS011;40105;52.366;17.000;2023-03-13T02:20:31;47.20;;;22.23;;
54197;SDS011;40105;52.366;17.000;2023-03-13T02:27:47;48.42;;;23.20;;
54197;SDS011;40105;52.366;17.000;2023-03-13T02:30:12;51.10;;;21.73;;
54197;SDS011;40105;52.366;17.000;2023-03-13T02:32:38;45.20;;;20.10;;
54197;SDS011;40105;52.366;17.000;2023-03-13T02:35:05;33.83;;;16.58;;
54197;SDS011;40105;52.366;17.000;2023-03-13T02:37:31;52.97;;;22.75;;
54197;SDS011;40105;52.366;17.000;2023-03-13T02:39:57;38.53;;;18.20;;
54197;SDS011;40105;52.366;17.000;2023-03-13T02:42:24;44.28;;;20.35;;
54197;SDS011;40105;52.366;17.000;2023-03-13T02:44:49;45.72;;;21.88;;
54197;SDS011;40105;52.366;17.000;2023-03-13T02:47:22;57.78;;;27.85;;
54197;SDS011;40105;52.366;17.000;2023-03-13T02:49:47;60.00;;;27.20;;
54197;SDS011;40105;52.366;17.000;2023-03-13T02:54:43;46.50;;;19.35;;
54197;SDS011;40105;52.366;17.000;2023-03-13T02:57:08;43.80;;;20.08;;
54197;SDS011;40105;52.366;17.000;2023-03-13T02:59:34;46.53;;;21.17;;
54197;SDS011;40105;52.366;17.000;2023-03-13T03:01:59;44.23;;;19.97;;
54197;SDS011;40105;52.366;17.000;2023-03-13T03:04:24;44.57;;;20.57;;
54197;SDS011;40105;52.366;17.000;2023-03-13T03:06:50;42.10;;;20.75;;
54197;SDS011;40105;52.366;17.000;2023-03-13T03:09:16;48.00;;;19.50;;
54197;SDS011;40105;52.366;17.000;2023-03-13T03:11:41;43.20;;;19.40;;
54197;SDS011;40105;52.366;17.000;2023-03-13T03:14:07;48.07;;;20.80;;
54197;SDS011;40105;52.366;17.000;2023-03-13T03:16:33;33.67;;;18.60;;
54197;SDS011;40105;52.366;17.000;2023-03-13T03:18:58;39.77;;;19.77;;
54197;SDS011;40105;52.366;17.000;2023-03-13T03:21:23;40.60;;;17.03;;
54197;SDS011;40105;52.366;17.000;2023-03-13T03:23:49;37.43;;;15.73;;
54197;SDS011;40105;52.366;17.000;2023-03-13T03:26:14;49.45;;;21.02;;
54197;SDS011;40105;52.366;17.000;2023-03-13T03:28:39;47.03;;;24.43;;
54197;SDS011;40105;52.366;17.000;2023-03-13T03:31:05;48.85;;;18.98;;
54197;SDS011;40105;52.366;17.000;2023-03-13T03:33:30;49.92;;;20.00;;
54197;SDS011;40105;52.366;17.000;2023-03-13T03:35:59;35.67;;;17.97;;
54197;SDS011;40105;52.366;17.000;2023-03-13T03:38:25;40.22;;;19.08;;
54197;SDS011;40105;52.366;17.000;2023-03-13T03:40:50;37.03;;;15.20;;
54197;SDS011;40105;52.366;17.000;2023-03-13T03:43:15;36.05;;;14.68;;
54197;SDS011;40105;52.366;17.000;2023-03-13T03:45:40;38.53;;;16.95;;
54197;SDS011;40105;52.366;17.000;2023-03-13T03:48:05;39.43;;;16.63;;
54197;SDS011;40105;52.366;17.000;2023-03-13T03:50:30;40.50;;;18.23;;
54197;SDS011;40105;52.366;17.000;2023-03-13T03:52:55;46.23;;;20.53;;
54197;SDS011;40105;52.366;17.000;2023-03-13T03:55:21;37.07;;;16.53;;
54197;SDS011;40105;52.366;17.000;2023-03-13T03:57:46;49.03;;;17.77;;
54197;SDS011;40105;52.366;17.000;2023-03-13T04:00:11;44.97;;;16.63;;
54197;SDS011;40105;52.366;17.000;2023-03-13T04:02:39;36.65;;;17.17;;
54197;SDS011;40105;52.366;17.000;2023-03-13T04:05:05;52.45;;;18.65;;
54197;SDS011;40105;52.366;17.000;2023-03-13T04:07:30;38.37;;;17.40;;
54197;SDS011;40105;52.366;17.000;2023-03-13T04:09:55;40.85;;;18.55;;
54197;SDS011;40105;52.366;17.000;2023-03-13T04:12:20;37.07;;;18.67;;
54197;SDS011;40105;52.366;17.000;2023-03-13T04:14:45;41.80;;;20.90;;
54197;SDS011;40105;52.366;17.000;2023-03-13T04:17:11;36.47;;;17.17;;
54197;SDS011;40105;52.366;17.000;2023-03-13T04:19:36;36.08;;;14.93;;
54197;SDS011;40105;52.366;17.000;2023-03-13T04:22:01;36.43;;;15.33;;
54197;SDS011;40105;52.366;17.000;2023-03-13T04:24:26;34.55;;;16.23;;
54197;SDS011;40105;52.366;17.000;2023-03-13T04:26:52;41.80;;;16.83;;
54197;SDS011;40105;52.366;17.000;2023-03-13T04:29:17;45.40;;;20.70;;
54197;SDS011;40105;52.366;17.000;2023-03-13T04:31:42;75.27;;;37.53;;
54197;SDS011;40105;52.366;17.000;2023-03-13T04:34:07;56.07;;;26.77;;
54197;SDS011;40105;52.366;17.000;2023-03-13T04:36:32;36.10;;;16.10;;
54197;SDS011;40105;52.366;17.000;2023-03-13T04:38:57;129.83;;;50.27;;
54197;SDS011;40105;52.366;17.000;2023-03-13T04:41:23;103.60;;;43.10;;
54197;SDS011;40105;52.366;17.000;2023-03-13T04:43:48;64.57;;;21.87;;
54197;SDS011;40105;52.366;17.000;2023-03-13T04:46:13;39.60;;;18.27;;
54197;SDS011;40105;52.366;17.000;2023-03-13T04:48:38;64.87;;;23.17;;
54197;SDS011;40105;52.366;17.000;2023-03-13T04:51:03;50.00;;;23.07;;
54197;SDS011;40105;52.366;17.000;2023-03-13T04:53:29;50.45;;;17.13;;
54197;SDS011;40105;52.366;17.000;2023-03-13T04:55:54;44.70;;;19.77;;
54197;SDS011;40105;52.366;17.000;2023-03-13T04:58:19;39.17;;;18.70;;
54197;SDS011;40105;52.366;17.000;2023-03-13T05:00:44;42.30;;;18.77;;
54197;SDS011;40105;52.366;17.000;2023-03-13T05:03:09;34.50;;;13.87;;
54197;SDS011;40105;52.366;17.000;2023-03-13T05:05:34;32.77;;;13.90;;
54197;SDS011;40105;52.366;17.000;2023-03-13T05:08:00;42.70;;;12.77;;
54197;SDS011;40105;52.366;17.000;2023-03-13T05:10:25;39.88;;;15.63;;
54197;SDS011;40105;52.366;17.000;2023-03-13T05:12:50;44.20;;;18.58;;
54197;SDS011;40105;52.366;17.000;2023-03-13T05:15:16;30.00;;;12.93;;
54197;SDS011;40105;52.366;17.000;2023-03-13T05:17:41;40.67;;;14.03;;
54197;SDS011;40105;52.366;17.000;2023-03-13T05:20:06;36.20;;;16.77;;
54197;SDS011;40105;52.366;17.000;2023-03-13T05:22:33;37.70;;;18.30;;
54197;SDS011;40105;52.366;17.000;2023-03-13T05:24:59;42.67;;;15.20;;
54197;SDS011;40105;52.366;17.000;2023-03-13T05:27:24;32.23;;;16.13;;
54197;SDS011;40105;52.366;17.000;2023-03-13T05:29:49;55.37;;;15.47;;
54197;SDS011;40105;52.366;17.000;2023-03-13T05:32:14;42.90;;;13.90;;
54197;SDS011;40105;52.366;17.000;2023-03-13T05:34:39;39.20;;;14.30;;
54197;SDS011;40105;52.366;17.000;2023-03-13T05:37:04;35.78;;;15.75;;
54197;SDS011;40105;52.366;17.000;2023-03-13T05:39:30;44.23;;;16.00;;
54197;SDS011;40105;52.366;17.000;2023-03-13T05:41:55;36.63;;;14.60;;
54197;SDS011;40105;52.366;17.000;2023-03-13T05:44:20;23.33;;;10.88;;
54197;SDS011;40105;52.366;17.000;2023-03-13T05:46:45;33.63;;;11.20;;
54197;SDS011;40105;52.366;17.000;2023-03-13T05:49:10;38.87;;;10.30;;
54197;SDS011;40105;52.366;17.000;2023-03-13T05:51:35;44.93;;;14.67;;
54197;SDS011;40105;52.366;17.000;2023-03-13T05:54:01;47.53;;;14.65;;
54197;SDS011;40105;52.366;17.000;2023-03-13T05:56:26;41.57;;;14.30;;
54197;SDS011;40105;52.366;17.000;2023-03-13T05:58:51;34.83;;;15.40;;
54197;SDS011;40105;52.366;17.000;2023-03-13T06:01:16;30.50;;;13.25;;
54197;SDS011;40105;52.366;17.000;2023-03-13T06:03:41;28.70;;;12.60;;
54197;SDS011;40105;52.366;17.000;2023-03-13T06:06:06;45.13;;;15.80;;
54197;SDS011;40105;52.366;17.000;2023-03-13T06:08:32;33.30;;;11.53;;
54197;SDS011;40105;52.366;17.000;2023-03-13T06:10:58;45.30;;;12.95;;
54197;SDS011;40105;52.366;17.000;2023-03-13T06:13:23;32.22;;;15.65;;
54197;SDS011;40105;52.366;17.000;2023-03-13T06:15:52;50.42;;;18.33;;
54197;SDS011;40105;52.366;17.000;2023-03-13T06:18:17;51.53;;;17.63;;
54197;SDS011;40105;52.366;17.000;2023-03-13T06:20:43;45.78;;;19.00;;
54197;SDS011;40105;52.366;17.000;2023-03-13T06:23:08;37.97;;;16.20;;
54197;SDS011;40105;52.366;17.000;2023-03-13T06:25:34;37.10;;;13.80;;
54197;SDS011;40105;52.366;17.000;2023-03-13T06:27:59;29.88;;;10.50;;
54197;SDS011;40105;52.366;17.000;2023-03-13T06:30:24;42.73;;;14.47;;
54197;SDS011;40105;52.366;17.000;2023-03-13T06:32:49;31.43;;;13.83;;
54197;SDS011;40105;52.366;17.000;2023-03-13T06:35:14;25.17;;;11.95;;
54197;SDS011;40105;52.366;17.000;2023-03-13T06:37:39;28.30;;;10.57;;
54197;SDS011;40105;52.366;17.000;2023-03-13T06:40:06;30.88;;;10.80;;
54197;SDS011;40105;52.366;17.000;2023-03-13T06:42:31;46.25;;;14.43;;
54197;SDS011;40105;52.366;17.000;2023-03-13T06:44:56;29.07;;;11.77;;
54197;SDS011;40105;52.366;17.000;2023-03-13T06:47:21;45.40;;;11.63;;
54197;SDS011;40105;52.366;17.000;2023-03-13T06:49:46;31.63;;;11.27;;
54197;SDS011;40105;52.366;17.000;2023-03-13T06:52:12;30.07;;;9.47;;
54197;SDS011;40105;52.366;17.000;2023-03-13T06:54:37;22.87;;;9.17;;
54197;SDS011;40105;52.366;17.000;2023-03-13T06:57:02;24.77;;;9.77;;
54197;SDS011;40105;52.366;17.000;2023-03-13T06:59:27;29.97;;;10.43;;
54197;SDS011;40105;52.366;17.000;2023-03-13T07:01:52;28.60;;;11.70;;
54197;SDS011;40105;52.366;17.000;2023-03-13T07:04:17;23.57;;;11.50;;
54197;SDS011;40105;52.366;17.000;2023-03-13T07:06:43;33.65;;;11.02;;
54197;SDS011;40105;52.366;17.000;2023-03-13T07:09:09;25.60;;;9.57;;
54197;SDS011;40105;52.366;17.000;2023-03-13T07:11:34;26.88;;;9.88;;
54197;SDS011;40105;52.366;17.000;2023-03-13T07:14:00;32.00;;;10.80;;
54197;SDS011;40105;52.366;17.000;2023-03-13T07:16:26;29.92;;;8.50;;
54197;SDS011;40105;52.366;17.000;2023-03-13T07:18:51;29.00;;;8.63;;
54197;SDS011;40105;52.366;17.000;2023-03-13T07:21:16;23.97;;;8.20;;
54197;SDS011;40105;52.366;17.000;2023-03-13T07:23:41;26.67;;;9.00;;
54197;SDS011;40105;52.366;17.000;2023-03-13T07:26:09;30.63;;;7.83;;
54197;SDS011;40105;52.366;17.000;2023-03-13T07:28:34;29.42;;;9.60;;
54197;SDS011;40105;52.366;17.000;2023-03-13T07:31:12;16.33;;;7.63;;
54197;SDS011;40105;52.366;17.000;2023-03-13T07:33:38;24.20;;;8.95;;
54197;SDS011;40105;52.366;17.000;2023-03-13T07:36:03;17.83;;;6.63;;
54197;SDS011;40105;52.366;17.000;2023-03-13T07:38:28;24.30;;;9.40;;
54197;SDS011;40105;52.366;17.000;2023-03-13T07:40:54;19.60;;;7.73;;
54197;SDS011;40105;52.366;17.000;2023-03-13T07:43:20;28.45;;;7.85;;
54197;SDS011;40105;52.366;17.000;2023-03-13T07:45:49;24.00;;;7.95;;
54197;SDS011;40105;52.366;17.000;2023-03-13T07:48:14;32.45;;;7.63;;
54197;SDS011;40105;52.366;17.000;2023-03-13T07:50:39;25.17;;;8.90;;
54197;SDS011;40105;52.366;17.000;2023-03-13T07:53:04;28.23;;;9.63;;
54197;SDS011;40105;52.366;17.000;2023-03-13T07:55:29;31.43;;;10.03;;
54197;SDS011;40105;52.366;17.000;2023-03-13T07:57:55;27.13;;;10.35;;
54197;SDS011;40105;52.366;17.000;2023-03-13T08:00:20;22.43;;;6.97;;
54197;SDS011;40105;52.366;17.000;2023-03-13T08:02:45;22.77;;;8.82;;
54197;SDS011;40105;52.366;17.000;2023-03-13T08:05:10;30.02;;;7.53;;
54197;SDS011;40105;52.366;17.000;2023-03-13T08:07:35;16.23;;;6.57;;
54197;SDS011;40105;52.366;17.000;2023-03-13T08:10:01;23.50;;;7.00;;
54197;SDS011;40105;52.366;17.000;2023-03-13T08:12:26;35.27;;;10.53;;
54197;SDS011;40105;52.366;17.000;2023-03-13T08:14:51;16.98;;;6.38;;
54197;SDS011;40105;52.366;17.000;2023-03-13T08:17:16;21.83;;;7.63;;
54197;SDS011;40105;52.366;17.000;2023-03-13T08:19:41;26.63;;;6.70;;
54197;SDS011;40105;52.366;17.000;2023-03-13T08:22:07;28.10;;;11.97;;
54197;SDS011;40105;52.366;17.000;2023-03-13T08:24:32;36.40;;;15.10;;
54197;SDS011;40105;52.366;17.000;2023-03-13T08:26:57;25.90;;;9.68;;
54197;SDS011;40105;52.366;17.000;2023-03-13T08:29:22;22.67;;;10.37;;
54197;SDS011;40105;52.366;17.000;2023-03-13T08:31:48;35.93;;;10.17;;
54197;SDS011;40105;52.366;17.000;2023-03-13T08:34:16;36.10;;;9.85;;
54197;SDS011;40105;52.366;17.000;2023-03-13T08:36:41;30.95;;;9.35;;
54197;SDS011;40105;52.366;17.000;2023-03-13T08:39:08;27.38;;;7.00;;
54197;SDS011;40105;52.366;17.000;2023-03-13T08:41:35;17.13;;;5.90;;
54197;SDS011;40105;52.366;17.000;2023-03-13T08:44:00;23.00;;;7.43;;
54197;SDS011;40105;52.366;17.000;2023-03-13T08:46:27;11.77;;;5.43;;
54197;SDS011;40105;52.366;17.000;2023-03-13T08:48:53;28.75;;;8.25;;
54197;SDS011;40105;52.366;17.000;2023-03-13T08:51:19;20.77;;;6.80;;
54197;SDS011;40105;52.366;17.000;2023-03-13T08:53:45;32.08;;;7.90;;
54197;SDS011;40105;52.366;17.000;2023-03-13T08:56:11;26.83;;;7.22;;
54197;SDS011;40105;52.366;17.000;2023-03-13T08:58:36;17.13;;;6.00;;
54197;SDS011;40105;52.366;17.000;2023-03-13T09:01:02;22.27;;;7.90;;
54197;SDS011;40105;52.366;17.000;2023-03-13T09:03:28;24.58;;;7.43;;
54197;SDS011;40105;52.366;17.000;2023-03-13T09:05:55;25.65;;;8.05;;
54197;SDS011;40105;52.366;17.000;2023-03-13T09:08:20;37.35;;;9.77;;
54197;SDS011;40105;52.366;17.000;2023-03-13T09:10:45;24.07;;;7.73;;
54197;SDS011;40105;52.366;17.000;2023-03-13T09:13:10;28.33;;;7.77;;
54197;SDS011;40105;52.366;17.000;2023-03-13T09:15:35;30.13;;;9.47;;
54197;SDS011;40105;52.366;17.000;2023-03-13T09:18:02;35.67;;;7.97;;
54197;SDS011;40105;52.366;17.000;2023-03-13T09:20:27;28.80;;;8.23;;
54197;SDS011;40105;52.366;17.000;2023-03-13T09:22:52;33.20;;;9.20;;
54197;SDS011;40105;52.366;17.000;2023-03-13T09:25:17;19.95;;;7.88;;
54197;SDS011;40105;52.366;17.000;2023-03-13T09:27:42;23.20;;;8.47;;
54197;SDS011;40105;52.366;17.000;2023-03-13T09:30:07;28.87;;;8.73;;
54197;SDS011;40105;52.366;17.000;2023-03-13T09:32:33;31.83;;;8.55;;
54197;SDS011;40105;52.366;17.000;2023-03-13T09:34:58;36.13;;;12.03;;
54197;SDS011;40105;52.366;17.000;2023-03-13T09:37:23;31.83;;;9.70;;
54197;SDS011;40105;52.366;17.000;2023-03-13T09:39:48;28.98;;;7.72;;
54197;SDS011;40105;52.366;17.000;2023-03-13T09:42:14;24.80;;;8.53;;
54197;SDS011;40105;52.366;17.000;2023-03-13T09:44:42;19.85;;;7.88;;
54197;SDS011;40105;52.366;17.000;2023-03-13T09:47:18;25.73;;;7.78;;
54197;SDS011;40105;52.366;17.000;2023-03-13T09:49:45;35.60;;;7.78;;
54197;SDS011;40105;52.366;17.000;2023-03-13T09:54:40;50.75;;;14.55;;
54197;SDS011;40105;52.366;17.000;2023-03-13T09:57:15;44.38;;;13.30;;
54197;SDS011;40105;52.366;17.000;2023-03-13T10:05:02;30.27;;;9.68;;
54197;SDS011;40105;52.366;17.000;2023-03-13T10:07:28;35.17;;;11.82;;
54197;SDS011;40105;52.366;17.000;2023-03-13T10:09:54;22.10;;;8.37;;
54197;SDS011;40105;52.366;17.000;2023-03-13T10:12:20;39.47;;;10.73;;
54197;SDS011;40105;52.366;17.000;2023-03-13T10:17:37;26.63;;;8.25;;
54197;SDS011;40105;52.366;17.000;2023-03-13T10:20:25;25.70;;;9.43;;
54197;SDS011;40105;52.366;17.000;2023-03-13T10:22:55;54.35;;;14.02;;
54197;SDS011;40105;52.366;17.000;2023-03-13T10:27:47;35.08;;;10.88;;
54197;SDS011;40105;52.366;17.000;2023-03-13T10:30:18;31.42;;;10.35;;
54197;SDS011;40105;52.366;17.000;2023-03-13T10:32:44;31.63;;;11.88;;
54197;SDS011;40105;52.366;17.000;2023-03-13T10:35:09;27.40;;;8.70;;
54197;SDS011;40105;52.366;17.000;2023-03-13T10:37:39;37.72;;;10.32;;
54197;SDS011;40105;52.366;17.000;2023-03-13T10:40:13;40.38;;;12.38;;
54197;SDS011;40105;52.366;17.000;2023-03-13T10:42:42;39.90;;;13.40;;
54197;SDS011;40105;52.366;17.000;2023-03-13T10:45:12;30.80;;;11.27;;
54197;SDS011;40105;52.366;17.000;2023-03-13T10:47:38;37.50;;;12.30;;
54197;SDS011;40105;52.366;17.000;2023-03-13T10:50:03;36.07;;;12.17;;
54197;SDS011;40105;52.366;17.000;2023-03-13T10:55:04;33.80;;;10.70;;
54197;SDS011;40105;52.366;17.000;2023-03-13T10:59:55;34.87;;;13.70;;
54197;SDS011;40105;52.366;17.000;2023-03-13T11:02:53;35.67;;;10.85;;
54197;SDS011;40105;52.366;17.000;2023-03-13T11:07:50;21.17;;;10.55;;
54197;SDS011;40105;52.366;17.000;2023-03-13T11:10:20;36.17;;;11.90;;
54197;SDS011;40105;52.366;17.000;2023-03-13T11:12:55;29.20;;;10.70;;
54197;SDS011;40105;52.366;17.000;2023-03-13T11:15:22;37.28;;;12.18;;
54197;SDS011;40105;52.366;17.000;2023-03-13T11:17:59;32.97;;;9.27;;
54197;SDS011;40105;52.366;17.000;2023-03-13T11:20:38;41.85;;;11.73;;
54197;SDS011;40105;52.366;17.000;2023-03-13T11:23:12;39.70;;;13.32;;
54197;SDS011;40105;52.366;17.000;2023-03-13T11:25:42;38.10;;;12.32;;
54197;SDS011;40105;52.366;17.000;2023-03-13T11:28:24;28.63;;;9.90;;
54197;SDS011;40105;52.366;17.000;2023-03-13T11:33:33;35.08;;;12.15;;
54197;SDS011;40105;52.366;17.000;2023-03-13T11:38:54;40.70;;;13.05;;
54197;SDS011;40105;52.366;17.000;2023-03-13T11:41:39;42.63;;;13.45;;
54197;SDS011;40105;52.366;17.000;2023-03-13T11:44:27;49.28;;;17.02;;
54197;SDS011;40105;52.366;17.000;2023-03-13T12:02:13;46.73;;;17.57;;
54197;SDS011;40105;52.366;17.000;2023-03-13T12:04:42;36.05;;;13.68;;
54197;SDS011;40105;52.366;17.000;2023-03-13T12:07:17;47.88;;;16.25;;
54197;SDS011;40105;52.366;17.000;2023-03-13T12:09:58;39.53;;;16.02;;
54197;SDS011;40105;52.366;17.000;2023-03-13T12:12:28;39.95;;;14.25;;
54197;SDS011;40105;52.366;17.000;2023-03-13T12:14:56;46.45;;;21.58;;
54197;SDS011;40105;52.366;17.000;2023-03-13T12:17:36;37.33;;;17.17;;
54197;SDS011;40105;52.366;17.000;2023-03-13T12:20:09;55.85;;;18.10;;
54197;SDS011;40105;52.366;17.000;2023-03-13T12:22:41;35.75;;;13.50;;
54197;SDS011;40105;52.366;17.000;2023-03-13T12:25:11;30.00;;;13.68;;
54197;SDS011;40105;52.366;17.000;2023-03-13T12:27:40;37.05;;;13.68;;
54197;SDS011;40105;52.366;17.000;2023-03-13T12:33:28;47.33;;;15.35;;
54197;SDS011;40105;52.366;17.000;2023-03-13T12:38:39;40.97;;;15.32;;
54197;SDS011;40105;52.366;17.000;2023-03-13T12:41:18;39.13;;;18.73;;
54197;SDS011;40105;52.366;17.000;2023-03-13T12:43:46;37.33;;;13.43;;
54197;SDS011;40105;52.366;17.000;2023-03-13T12:46:21;41.25;;;16.95;;
54197;SDS011;40105;52.366;17.000;2023-03-13T12:49:01;32.35;;;17.10;;
54197;SDS011;40105;52.366;17.000;2023-03-13T12:59:21;36.95;;;14.88;;
54197;SDS011;40105;52.366;17.000;2023-03-13T13:01:49;29.52;;;16.08;;
54197;SDS011;40105;52.366;17.000;2023-03-13T13:04:22;50.53;;;19.23;;
54197;SDS011;40105;52.366;17.000;2023-03-13T13:07:01;45.25;;;15.43;;
54197;SDS011;40105;52.366;17.000;2023-03-13T13:09:31;33.85;;;14.68;;
54197;SDS011;40105;52.366;17.000;2023-03-13T13:11:57;27.52;;;12.23;;
54197;SDS011;40105;52.366;17.000;2023-03-13T13:17:14;38.42;;;14.75;;
54197;SDS011;40105;52.366;17.000;2023-03-13T13:24:50;37.70;;;16.13;;
54197;SDS011;40105;52.366;17.000;2023-03-13T13:27:49;27.70;;;12.38;;
54197;SDS011;40105;52.366;17.000;2023-03-13T13:32:45;35.30;;;18.48;;
54197;SDS011;40105;52.366;17.000;2023-03-13T13:37:35;38.83;;;18.73;;
54197;SDS011;40105;52.366;17.000;2023-03-13T13:42:57;44.03;;;16.45;;
54197;SDS011;40105;52.366;17.000;2023-03-13T13:45:24;43.63;;;18.25;;
54197;SDS011;40105;52.366;17.000;2023-03-13T13:47:50;38.92;;;16.40;;
54197;SDS011;40105;52.366;17.000;2023-03-13T13:50:35;34.60;;;16.33;;
54197;SDS011;40105;52.366;17.000;2023-03-13T13:55:44;39.60;;;16.20;;
54197;SDS011;40105;52.366;17.000;2023-03-13T13:58:16;42.53;;;13.70;;
54197;SDS011;40105;52.366;17.000;2023-03-13T14:00:43;36.08;;;12.63;;
54197;SDS011;40105;52.366;17.000;2023-03-13T14:03:17;33.72;;;12.98;;
54197;SDS011;40105;52.366;17.000;2023-03-13T14:05:42;37.40;;;15.43;;
54197;SDS011;40105;52.366;17.000;2023-03-13T14:10:41;38.10;;;14.05;;
54197;SDS011;40105;52.366;17.000;2023-03-13T14:13:16;26.58;;;11.45;;
54197;SDS011;40105;52.366;17.000;2023-03-13T14:15:42;26.17;;;12.00;;
54197;SDS011;40105;52.366;17.000;2023-03-13T14:18:09;37.38;;;18.67;;
54197;SDS011;40105;52.366;17.000;2023-03-13T14:20:36;31.67;;;13.85;;
54197;SDS011;40105;52.366;17.000;2023-03-13T14:23:03;27.13;;;13.65;;
54197;SDS011;40105;52.366;17.000;2023-03-13T14:25:48;37.35;;;14.48;;
54197;SDS011;40105;52.366;17.000;2023-03-13T14:28:15;29.48;;;13.02;;
54197;SDS011;40105;52.366;17.000;2023-03-13T14:30:43;32.83;;;13.90;;
54197;SDS011;40105;52.366;17.000;2023-03-13T14:33:09;29.77;;;13.18;;
54197;SDS011;40105;52.366;17.000;2023-03-13T14:35:34;30.42;;;15.40;;
54197;SDS011;40105;52.366;17.000;2023-03-13T14:38:00;19.07;;;10.67;;
54197;SDS011;40105;52.366;17.000;2023-03-13T14:40:26;31.85;;;11.57;;
54197;SDS011;40105;52.366;17.000;2023-03-13T14:42:56;25.75;;;10.95;;
54197;SDS011;40105;52.366;17.000;2023-03-13T14:45:23;24.95;;;10.02;;
54197;SDS011;40105;52.366;17.000;2023-03-13T14:47:52;19.17;;;9.43;;
54197;SDS011;40105;52.366;17.000;2023-03-13T14:50:18;23.55;;;11.05;;
54197;SDS011;40105;52.366;17.000;2023-03-13T14:52:45;22.77;;;10.55;;
54197;SDS011;40105;52.366;17.000;2023-03-13T15:00:41;27.08;;;11.43;;
54197;SDS011;40105;52.366;17.000;2023-03-13T15:05:40;31.65;;;13.18;;
54197;SDS011;40105;52.366;17.000;2023-03-13T15:08:11;31.63;;;9.48;;
54197;SDS011;40105;52.366;17.000;2023-03-13T15:10:37;27.85;;;10.98;;
54197;SDS011;40105;52.366;17.000;2023-03-13T15:15:38;25.70;;;11.52;;
54197;SDS011;40105;52.366;17.000;2023-03-13T15:18:09;26.10;;;11.33;;
54197;SDS011;40105;52.366;17.000;2023-03-13T15:20:36;23.23;;;10.80;;
54197;SDS011;40105;52.366;17.000;2023-03-13T15:23:02;22.70;;;9.27;;
54197;SDS011;40105;52.366;17.000;2023-03-13T15:25:29;29.08;;;9.13;;
54197;SDS011;40105;52.366;17.000;2023-03-13T15:27:55;24.50;;;10.13;;
54197;SDS011;40105;52.366;17.000;2023-03-13T15:30:21;19.33;;;8.57;;
54197;SDS011;40105;52.366;17.000;2023-03-13T15:32:47;24.27;;;9.63;;
54197;SDS011;40105;52.366;17.000;2023-03-13T15:37:41;18.58;;;7.55;;
54197;SDS011;40105;52.366;17.000;2023-03-13T15:40:08;19.03;;;8.10;;
54197;SDS011;40105;52.366;17.000;2023-03-13T15:42:37;21.33;;;7.75;;
54197;SDS011;40105;52.366;17.000;2023-03-13T15:45:02;19.07;;;6.90;;
54197;SDS011;40105;52.366;17.000;2023-03-13T15:47:28;16.90;;;7.47;;
54197;SDS011;40105;52.366;17.000;2023-03-13T15:49:53;16.92;;;6.53;;